Time;durP1;ratioP1;P1;durP2;ratioP2;P2;SDS_P1;SDS_P2;PMS_P1;PMS_P2;Temp;Humidity;BMP_temperature;BMP_pressure;BME280_temperature;BME280_humidity;BME280_pressure;Samples;Min_cycle;Max_cycle;Signal;HPM_P1;HPM_P2
2021/12/12 00:01:45;;;;;;;43.52;24.70;;;;;;;7.73;57.54;100678.59;2282863;85;25699;-79
2021/12/12 00:05:09;;;;;;;44.23;25.95;;;;;;;7.69;57.53;100674.08;2286125;86;25690;-78
2021/12/12 00:08:30;;;;;;;42.95;26.70;;;;;;;7.68;57.49;100684.00;2296472;85;25901;-78
2021/12/12 00:11:52;;;;;;;44.40;25.80;;;;;;;7.66;57.44;100679.14;2314091;85;25690;-79
2021/12/12 00:15:16;;;;;;;46.25;26.77;;;;;;;7.63;57.42;100682.91;2286939;85;25220;-78
2021/12/12 00:18:39;;;;;;;44.88;26.55;;;;;;;7.61;57.38;100689.35;2316076;85;25703;-78
2021/12/12 00:22:04;;;;;;;45.67;26.82;;;;;;;7.59;57.32;100698.77;2315121;84;25623;-81
2021/12/12 00:25:32;;;;;;;42.53;25.45;;;;;;;7.56;57.30;100690.89;2309479;84;25587;-86
2021/12/12 00:28:54;;;;;;;40.78;24.92;;;;;;;7.53;57.28;100689.05;2309178;85;25720;-86
2021/12/12 00:32:17;;;;;;;43.87;25.25;;;;;;;7.51;57.23;100693.70;2309099;85;25671;-85
2021/12/12 00:35:42;;;;;;;41.28;24.05;;;;;;;7.48;57.18;100686.66;2307794;85;25683;-82
2021/12/12 00:39:12;;;;;;;43.33;24.63;;;;;;;7.47;57.16;100684.02;2307975;84;25719;-82
2021/12/12 00:42:36;;;;;;;;;;;;;;;7.44;57.09;100689.97;2311931;85;25555;-81
2021/12/12 00:46:07;;;;;;;38.45;24.90;;;;;;;7.41;57.08;100690.25;2308034;84;25763;-84
2021/12/12 00:49:31;;;;;;;40.45;25.02;;;;;;;7.38;57.04;100697.48;2308740;85;25693;-84
2021/12/12 00:52:53;;;;;;;42.10;22.82;;;;;;;7.35;57.04;100698.66;2308400;84;25696;-81
2021/12/12 00:56:15;;;;;;;41.20;24.70;;;;;;;7.32;57.01;100696.84;2308813;85;25849;-86
2021/12/12 00:59:37;;;;;;;43.38;24.77;;;;;;;7.30;56.98;100698.48;2308970;84;25736;-82
2021/12/12 01:03:09;;;;;;;42.20;24.98;;;;;;;7.28;56.96;100705.30;2310101;85;25797;-87
2021/12/12 01:06:36;;;;;;;42.73;24.65;;;;;;;7.27;56.93;100705.25;2201529;88;25703;-78
2021/12/12 01:10:03;;;;;;;42.55;25.62;;;;;;;7.23;56.93;100706.83;2202398;88;25772;-83
2021/12/12 01:13:24;;;;;;;42.13;25.45;;;;;;;7.23;56.90;100708.53;2168227;88;25862;-85
2021/12/12 01:17:05;;;;;;;43.15;25.25;;;;;;;7.21;56.86;100710.17;2168714;91;25760;-83
2021/12/12 01:20:52;;;;;;;44.10;25.00;;;;;;;7.19;56.85;100701.42;2131135;90;25817;-83
2021/12/12 01:24:24;;;;;;;46.13;26.62;;;;;;;7.17;56.84;100700.49;2139347;90;25799;-85
2021/12/12 01:27:46;;;;;;;48.55;26.73;;;;;;;7.15;56.81;100693.92;2088845;94;25732;-82
2021/12/12 01:31:12;;;;;;;43.33;25.72;;;;;;;7.13;56.82;100690.41;2152857;91;25866;-86
2021/12/12 01:34:36;;;;;;;43.15;25.55;;;;;;;7.12;56.80;100693.83;2153041;91;25730;-85
2021/12/12 01:42:21;;;;;;;41.18;25.27;;;;;;;7.09;56.76;100689.39;2153482;90;26056;-85
2021/12/12 01:45:46;;;;;;;44.83;27.07;;;;;;;7.08;56.74;100691.91;2153513;90;25727;-86
2021/12/12 01:49:13;;;;;;;49.73;27.98;;;;;;;7.05;56.74;100691.39;2157666;89;25674;-87
2021/12/12 01:52:36;;;;;;;47.98;26.52;;;;;;;7.04;56.72;100696.48;2217423;87;25902;-84
2021/12/12 01:56:27;;;;;;;51.70;28.23;;;;;;;7.04;56.71;100705.56;2216439;87;25698;-85
2021/12/12 01:59:56;;;;;;;47.85;26.93;;;;;;;7.01;56.70;100692.46;2155166;87;26575;-87
2021/12/12 02:03:21;;;;;;;48.52;27.45;;;;;;;7.01;56.72;100695.05;2251253;84;26029;-85
2021/12/12 02:06:57;;;;;;;47.40;27.45;;;;;;;7.00;56.71;100694.17;2329532;84;25811;-84
2021/12/12 02:10:29;;;;;;;52.48;26.93;;;;;;;7.00;56.70;100692.00;2330228;83;26366;-85
2021/12/12 02:14:08;;;;;;;49.55;26.87;;;;;;;6.99;56.69;100693.70;2330770;84;25849;-84
2021/12/12 02:17:46;;;;;;;54.83;29.00;;;;;;;6.99;56.69;100700.61;2328588;83;25723;-84
2021/12/12 02:21:45;;;;;;;49.18;29.10;;;;;;;6.97;56.68;100700.52;2329241;83;25930;-85
2021/12/12 02:36:17;;;;;;;50.28;26.23;;;;;;;6.95;56.67;100712.55;2262748;85;25695;-86
2021/12/12 02:39:39;;;;;;;47.98;26.05;;;;;;;6.94;56.67;100719.83;2310200;85;25720;-87
2021/12/12 02:43:19;;;;;;;51.50;26.60;;;;;;;6.95;56.69;100716.81;2310145;85;25631;-84
2021/12/12 02:46:36;;;;;;;51.02;27.82;;;;;;;6.94;56.70;100722.41;2307618;85;25766;-83
2021/12/12 02:50:13;;;;;;;45.75;26.55;;;;;;;6.94;56.71;100729.31;2310445;85;26189;-81
2021/12/12 02:53:52;;;;;;;43.95;25.23;;;;;;;6.94;56.70;100734.08;2310367;85;25709;-83
2021/12/12 02:57:22;;;;;;;47.43;26.10;;;;;;;6.94;56.72;100734.49;2208689;86;25697;-86
2021/12/12 03:01:17;;;;;;;48.20;26.07;;;;;;;6.94;56.71;100742.27;2278771;85;25790;-84
2021/12/12 03:04:39;;;;;;;44.27;24.18;;;;;;;6.93;56.70;100739.22;2271783;86;25698;-80
2021/12/12 03:08:01;;;;;;;46.50;27.05;;;;;;;6.90;56.71;100736.07;2278707;86;26933;-85
2021/12/12 03:11:27;;;;;;;44.60;26.48;;;;;;;6.91;56.71;100739.13;2277948;85;25779;-79
2021/12/12 03:15:09;;;;;;;43.45;23.62;;;;;;;6.91;56.70;100739.54;2277052;85;25529;-85
2021/12/12 03:18:40;;;;;;;41.48;23.90;;;;;;;6.91;56.71;100744.73;2270877;86;25787;-87
2021/12/12 03:22:22;;;;;;;46.77;26.35;;;;;;;6.91;56.70;100736.95;2277268;86;25777;-87
2021/12/12 03:25:40;;;;;;;44.75;24.80;;;;;;;6.91;56.71;100739.54;2285221;86;25814;-82
2021/12/12 03:29:04;;;;;;;42.30;24.45;;;;;;;6.91;56.70;100740.42;2290968;86;25786;-86
2021/12/12 03:32:37;;;;;;;43.65;23.90;;;;;;;6.89;56.69;100739.48;2290369;86;25762;-86
2021/12/12 03:36:03;;;;;;;45.65;25.57;;;;;;;6.90;56.68;100741.66;2290926;86;25991;-82
2021/12/12 03:39:32;;;;;;;38.92;23.30;;;;;;;6.90;56.69;100739.08;2291570;86;25811;-84
2021/12/12 03:42:58;;;;;;;49.20;26.05;;;;;;;6.89;56.69;100737.31;2290384;86;25611;-85
2021/12/12 03:46:19;;;;;;;48.20;24.77;;;;;;;6.89;56.68;100742.08;2292487;86;25323;-83
2021/12/12 03:49:41;;;;;;;43.80;23.75;;;;;;;6.89;56.68;100749.86;2268481;86;25823;-85
2021/12/12 03:53:04;;;;;;;47.20;25.12;;;;;;;6.88;56.68;100740.28;2331481;82;25300;-83
2021/12/12 03:56:26;;;;;;;39.95;24.27;;;;;;;6.88;56.69;100744.17;2403419;82;26849;-85
2021/12/12 03:59:48;;;;;;;45.95;24.70;;;;;;;6.88;56.67;100745.88;2403254;81;25657;-84
2021/12/12 04:03:12;;;;;;;41.80;23.55;;;;;;;6.86;56.67;100744.53;2404024;82;25818;-85
2021/12/12 04:06:33;;;;;;;44.42;24.20;;;;;;;6.87;56.67;100752.78;2403905;81;25824;-82
2021/12/12 04:09:56;;;;;;;43.75;23.75;;;;;;;6.87;56.66;100750.19;2403987;82;26351;-86
2021/12/12 04:13:17;;;;;;;43.48;24.57;;;;;;;6.88;56.65;100753.66;2403801;81;25758;-83
2021/12/12 04:16:43;;;;;;;45.67;24.98;;;;;;;6.87;56.65;100768.33;2404011;82;25728;-82
2021/12/12 04:20:19;;;;;;;45.70;24.98;;;;;;;6.87;56.65;100772.22;2403526;81;25586;-82
2021/12/12 04:23:40;;;;;;;42.10;22.27;;;;;;;6.86;56.65;100775.22;2402296;82;25610;-84
2021/12/12 04:27:03;;;;;;;41.20;23.90;;;;;;;6.87;56.64;100782.58;2385662;82;26097;-84
2021/12/12 04:30:24;;;;;;;45.17;24.80;;;;;;;6.86;56.64;100781.70;2385860;82;26332;-84
2021/12/12 04:33:45;;;;;;;42.57;24.00;;;;;;;6.87;56.65;100789.06;2368986;83;25759;-82
2021/12/12 04:37:08;;;;;;;48.07;25.00;;;;;;;6.86;56.64;100801.55;2385764;82;25709;-82
2021/12/12 04:40:33;;;;;;;46.42;24.52;;;;;;;6.87;56.66;100808.50;2386219;81;25784;-89
2021/12/12 04:43:54;;;;;;;49.60;25.82;;;;;;;6.86;56.63;100817.10;2368993;81;25667;-86
2021/12/12 04:51:29;;;;;;;42.33;23.92;;;;;;;6.87;56.65;100818.86;2304252;85;25250;-86
2021/12/12 04:55:14;;;;;;;49.67;23.18;;;;;;;6.87;56.66;100824.05;2156798;91;25747;-83
2021/12/12 04:59:00;;;;;;;48.87;24.02;;;;;;;6.86;56.64;100828.34;2156722;90;25789;-83
2021/12/12 05:02:38;;;;;;;49.73;24.00;;;;;;;6.88;56.64;100832.30;2156958;91;25707;-87
2021/12/12 05:06:11;;;;;;;46.05;24.80;;;;;;;6.87;56.64;100829.23;2156771;91;25750;-87
2021/12/12 05:09:46;;;;;;;40.08;23.35;;;;;;;6.87;56.67;100822.75;2136840;91;25700;-85
2021/12/12 05:13:17;;;;;;;44.33;25.02;;;;;;;6.87;56.64;100833.12;2156851;90;25791;-86
2021/12/12 05:16:42;;;;;;;44.75;22.82;;;;;;;6.86;56.65;100833.53;2157052;90;25676;-84
2021/12/12 05:20:09;;;;;;;44.40;22.80;;;;;;;6.86;56.65;100836.13;2156443;90;25791;-87
2021/12/12 05:23:32;;;;;;;42.62;22.87;;;;;;;6.86;56.65;100837.84;2163432;88;25239;-86
2021/12/12 05:26:59;;;;;;;46.23;23.90;;;;;;;6.86;56.66;100843.91;2239134;88;25683;-85
2021/12/12 05:30:25;;;;;;;44.00;23.90;;;;;;;6.87;56.65;100844.78;2256788;83;25775;-81
2021/12/12 05:33:51;;;;;;;46.15;24.32;;;;;;;6.87;56.66;100853.86;2386699;82;25868;-83
2021/12/12 05:37:13;;;;;;;42.78;22.15;;;;;;;6.87;56.66;100846.08;2369199;83;25734;-85
2021/12/12 05:40:37;;;;;;;46.20;23.40;;;;;;;6.87;56.65;100853.86;2385914;81;25687;-84
2021/12/12 05:43:59;;;;;;;46.75;24.55;;;;;;;6.88;56.63;100848.26;2386050;83;25692;-88
2021/12/12 05:47:22;;;;;;;43.20;23.83;;;;;;;6.89;56.63;100852.64;2369141;83;25594;-87
2021/12/12 05:50:44;;;;;;;42.45;24.55;;;;;;;6.88;56.65;100859.51;2385263;81;25693;-85
2021/12/12 05:54:06;;;;;;;46.25;24.07;;;;;;;6.88;56.63;100860.80;2385848;81;25712;-84
2021/12/12 05:57:28;;;;;;;40.38;22.98;;;;;;;6.90;56.61;100867.37;2385745;83;25653;-87
2021/12/12 06:01:00;;;;;;;42.98;22.70;;;;;;;6.89;56.63;100875.56;2385696;81;25670;-81
2021/12/12 06:04:21;;;;;;;42.48;23.62;;;;;;;6.89;56.63;100869.49;2386173;82;25575;-84
2021/12/12 06:07:43;;;;;;;42.48;23.07;;;;;;;6.90;56.63;100872.55;2368804;81;25846;-87
2021/12/12 06:11:06;;;;;;;44.67;22.02;;;;;;;6.91;56.63;100879.09;2386086;82;25607;-88
2021/12/12 06:14:30;;;;;;;48.25;24.95;;;;;;;6.91;56.63;100891.17;2385465;81;25454;-83
2021/12/12 06:17:51;;;;;;;48.17;25.17;;;;;;;6.90;56.62;100886.40;2385767;82;25591;-84
2021/12/12 06:21:14;;;;;;;45.25;24.12;;;;;;;6.92;56.63;100895.52;2385722;83;25642;-84
2021/12/12 06:24:40;;;;;;;46.05;24.95;;;;;;;6.92;56.63;100895.52;2389091;82;25602;-83
2021/12/12 06:28:11;;;;;;;44.05;25.37;;;;;;;6.92;56.60;100900.70;2403579;81;25658;-87
2021/12/12 06:31:37;;;;;;;46.30;24.90;;;;;;;6.92;56.61;100901.63;2403528;82;25589;-86
2021/12/12 06:35:01;;;;;;;47.23;25.80;;;;;;;6.92;56.62;100897.73;2403532;82;25594;-82
2021/12/12 06:38:23;;;;;;;42.50;25.43;;;;;;;6.92;56.60;100900.33;2403266;81;25677;-86
2021/12/12 06:41:44;;;;;;;44.60;24.70;;;;;;;6.93;56.60;100894.73;2403925;82;26030;-83
2021/12/12 06:45:10;;;;;;;46.88;27.13;;;;;;;6.93;56.59;100893.02;2403965;82;25168;-80
2021/12/12 06:48:33;;;;;;;51.00;26.73;;;;;;;6.93;56.58;100903.39;2403815;82;25610;-86
2021/12/12 06:51:59;;;;;;;54.40;27.98;;;;;;;6.92;56.56;100908.11;2403251;82;26364;-77
2021/12/12 06:55:21;;;;;;;60.52;29.60;;;;;;;6.91;56.56;100901.13;2403476;81;25738;-87
2021/12/12 06:58:43;;;;;;;54.60;28.50;;;;;;;6.91;56.52;100897.64;2404053;82;25644;-83
2021/12/12 07:02:06;;;;;;;63.58;31.45;;;;;;;6.91;56.52;100900.23;2403550;81;25683;-83
2021/12/12 07:05:30;;;;;;;69.27;31.87;;;;;;;6.92;56.50;100910.70;2404824;82;25708;-81
2021/12/12 07:08:53;;;;;;;55.38;28.85;;;;;;;6.92;56.52;100918.47;2403701;82;25645;-86
2021/12/12 07:12:21;;;;;;;68.15;32.70;;;;;;;6.91;56.50;100910.20;2403521;82;25660;-83
2021/12/12 07:15:50;;;;;;;64.03;30.25;;;;;;;6.91;56.48;100912.78;2402979;82;25645;-84
2021/12/12 07:19:14;;;;;;;65.42;31.85;;;;;;;6.92;56.50;100924.95;2403671;82;25648;-87
2021/12/12 07:22:35;;;;;;;70.87;32.83;;;;;;;6.92;56.49;100936.62;2403053;82;25690;-87
2021/12/12 07:25:59;;;;;;;61.40;29.42;;;;;;;6.93;56.45;100937.09;2403693;82;25695;-83
2021/12/12 07:29:21;;;;;;;64.45;31.90;;;;;;;6.94;56.41;100938.86;2403733;80;25630;-88
2021/12/12 07:32:43;;;;;;;67.47;34.25;;;;;;;6.96;56.41;100944.12;2403739;82;25738;-86
2021/12/12 07:36:08;;;;;;;66.35;33.67;;;;;;;6.95;56.39;100943.62;2403709;80;25975;-81
2021/12/12 07:39:32;;;;;;;67.37;32.38;;;;;;;6.95;56.36;100948.43;2403173;81;25898;-85
2021/12/12 07:42:55;;;;;;;75.62;35.80;;;;;;;6.95;56.33;100948.81;2403356;80;26265;-84
2021/12/12 07:46:21;;;;;;;71.30;34.15;;;;;;;6.96;56.29;100948.02;2378933;82;25607;-86
2021/12/12 07:49:47;;;;;;;73.37;33.80;;;;;;;6.94;56.25;100949.22;2378627;81;25663;-84
2021/12/12 07:53:09;;;;;;;71.65;36.13;;;;;;;6.95;56.24;100952.32;2403530;82;25633;-85
2021/12/12 07:56:34;;;;;;;73.40;33.85;;;;;;;6.97;56.21;100962.33;2403771;81;25676;-79
2021/12/12 07:59:59;;;;;;;70.70;32.85;;;;;;;6.99;56.17;100967.19;2403897;82;25668;-80
2021/12/12 08:03:24;;;;;;;79.97;35.05;;;;;;;7.01;56.14;100964.66;2403912;82;25536;-80
2021/12/12 08:06:49;;;;;;;78.02;36.80;;;;;;;7.02;56.10;100971.23;2404002;81;25634;-79
2021/12/12 08:10:14;;;;;;;88.35;38.45;;;;;;;7.03;56.07;100973.41;2403632;82;25668;-80
2021/12/12 08:13:36;;;;;;;76.33;37.98;;;;;;;7.03;56.07;100970.81;2403720;81;25666;-85
2021/12/12 08:16:59;;;;;;;84.28;38.13;;;;;;;7.02;56.03;100972.52;2404069;81;25645;-85
2021/12/12 08:20:21;;;;;;;89.72;38.90;;;;;;;7.02;55.98;100986.78;2404058;82;25713;-86
2021/12/12 08:23:44;;;;;;;94.67;43.28;;;;;;;7.01;55.96;100987.58;2403467;81;25673;-83
2021/12/12 08:27:08;;;;;;;99.25;44.80;;;;;;;6.99;55.94;100984.45;2390097;82;25682;-80
2021/12/12 08:30:32;;;;;;;93.87;44.63;;;;;;;6.98;55.90;100996.91;2354264;83;25441;-78
2021/12/12 08:33:55;;;;;;;100.70;45.75;;;;;;;6.97;55.93;100989.96;2354410;84;25654;-76
2021/12/12 08:37:16;;;;;;;101.38;49.42;;;;;;;6.95;55.93;100988.98;2354349;84;25288;-84
2021/12/12 08:40:43;;;;;;;112.50;48.35;;;;;;;6.97;55.88;100993.85;2353969;82;25702;-81
2021/12/12 08:44:08;;;;;;;119.42;50.78;;;;;;;6.96;55.88;101001.16;2354037;84;25832;-82
2021/12/12 08:47:31;;;;;;;115.40;51.00;;;;;;;6.95;55.85;101004.16;2354191;82;25650;-82
2021/12/12 08:51:02;;;;;;;117.17;51.80;;;;;;;6.95;55.84;100996.39;2354500;82;25713;-85
2021/12/12 08:54:28;;;;;;;126.12;53.95;;;;;;;6.95;55.81;101002.86;2353804;84;25730;-83
2021/12/12 08:58:14;;;;;;;60.83;29.45;;;;;;;6.96;55.78;101013.70;2353688;84;25856;-80
2021/12/12 09:01:26;;;;;;;103.67;46.48;;;;;;;6.98;58.29;101006.87;2351769;83;25650;-81
2021/12/12 09:04:55;;;;;;;112.28;47.78;;;;;;;7.25;58.25;101005.99;2353375;84;25603;-78
2021/12/12 09:08:28;;;;;;;98.95;48.48;;;;;;;7.32;57.80;101000.69;2353396;84;25578;-85
2021/12/12 09:12:07;;;;;;;108.70;48.75;;;;;;;7.32;57.61;100994.20;2340718;83;25716;-84
2021/12/12 09:15:42;;;;;;;113.93;53.93;;;;;;;7.29;57.53;100996.68;2354412;83;26505;-81
2021/12/12 09:19:18;;;;;;;114.28;51.85;;;;;;;7.28;57.40;100998.77;2342481;83;26031;-85
2021/12/12 09:22:54;;;;;;;115.45;52.93;;;;;;;7.25;57.32;100995.62;2307238;83;25990;-80
2021/12/12 09:26:14;;;;;;;125.07;55.55;;;;;;;7.24;57.20;101001.63;2379703;82;25796;-82
2021/12/12 09:29:58;;;;;;;114.95;52.27;;;;;;;7.22;57.15;100993.29;2352900;82;25682;-84
2021/12/12 09:33:31;;;;;;;110.97;53.87;;;;;;;7.21;57.11;100994.12;2341814;84;25686;-76
2021/12/12 09:36:58;;;;;;;121.77;55.73;;;;;;;7.21;57.03;100994.12;2341228;83;25705;-85
2021/12/12 09:41:08;;;;;;;122.82;57.20;;;;;;;7.21;56.98;100991.11;2341870;83;25882;-82
2021/12/12 09:45:00;;;;;;;124.80;54.25;;;;;;;7.22;56.88;100993.29;2303234;85;25861;-79
2021/12/12 09:52:57;;;;;;;113.80;53.35;;;;;;;7.23;56.75;100987.31;2150642;91;25782;-80
2021/12/12 09:56:36;;;;;;;116.17;53.73;;;;;;;7.22;56.67;100979.95;2175904;89;25818;-79
2021/12/12 10:00:27;;;;;;;113.23;54.13;;;;;;;7.24;56.59;100975.70;2177153;89;25968;-84
2021/12/12 10:04:22;;;;;;;122.50;51.63;;;;;;;7.25;56.57;100967.09;2156004;91;25799;-85
2021/12/12 10:08:09;;;;;;;105.78;51.13;;;;;;;7.28;58.50;100959.45;2199344;87;26022;-83
2021/12/12 10:11:55;;;;;;;101.42;50.52;;;;;;;7.48;57.55;100966.85;2198506;89;25715;-79
2021/12/12 10:15:23;;;;;;;100.53;51.55;;;;;;;7.45;57.31;100968.42;2199275;89;25782;-82
2021/12/12 10:19:10;;;;;;;104.17;49.95;;;;;;;7.42;57.13;100960.08;2177049;89;25909;-86
2021/12/12 10:22:58;;;;;;;91.50;46.08;;;;;;;7.41;57.01;100962.63;2211099;89;25727;-82
2021/12/12 10:26:30;;;;;;;105.63;49.55;;;;;;;7.50;58.43;100953.97;2200915;89;25769;-85
2021/12/12 10:30:18;;;;;;;100.50;47.93;;;;;;;7.61;58.10;100956.63;2241244;86;26274;-85
2021/12/12 10:33:50;;;;;;;99.32;48.25;;;;;;;7.63;57.80;100942.41;2314861;85;26398;-80
2021/12/12 10:37:25;;;;;;;97.05;47.05;;;;;;;7.65;57.66;100939.48;2292992;86;25676;-85
2021/12/12 10:41:03;;;;;;;94.03;47.27;;;;;;;7.64;57.52;100951.58;2201506;89;25802;-79
2021/12/12 10:44:36;;;;;;;88.52;44.67;;;;;;;7.61;57.32;100967.00;2202472;86;25774;-85
2021/12/12 10:48:05;;;;;;;81.70;40.33;;;;;;;7.57;57.48;100959.49;2201473;89;25715;-85
2021/12/12 10:51:30;;;;;;;71.92;36.90;;;;;;;7.58;57.42;100966.45;2202595;89;25718;-80
2021/12/12 10:55:03;;;;;;;72.95;36.93;;;;;;;7.63;58.97;100948.89;2200585;89;25751;-81
2021/12/12 10:58:47;;;;;;;70.57;36.65;;;;;;;7.68;58.31;100952.59;2213815;88;25973;-81
2021/12/12 11:02:13;;;;;;;80.75;38.23;;;;;;;7.75;58.80;100965.02;2188590;89;25806;-83
2021/12/12 11:05:55;;;;;;;82.22;40.15;;;;;;;7.78;58.97;100963.86;2210148;88;25790;-82
2021/12/12 11:09:24;;;;;;;78.25;39.67;;;;;;;7.76;58.74;100974.19;2150834;91;26021;-86
2021/12/12 11:13:00;;;;;;;81.95;40.03;;;;;;;7.73;58.53;100969.27;2211424;87;25845;-86
2021/12/12 11:16:35;;;;;;;83.17;40.70;;;;;;;7.72;58.46;100977.44;2207074;85;25260;-83
2021/12/12 11:20:20;;;;;;;79.85;36.95;;;;;;;8.15;63.92;100976.73;2306234;85;25687;-87
2021/12/12 11:23:58;;;;;;;77.30;38.05;;;;;;;9.20;63.90;100962.37;2309233;85;25827;-82
2021/12/12 11:27:30;;;;;;;77.85;37.00;;;;;;;10.11;63.49;100964.84;2304742;85;25746;-86
2021/12/12 11:31:00;;;;;;;76.45;36.75;;;;;;;10.74;62.33;100959.17;2263151;86;43469;-84
2021/12/12 11:34:24;;;;;;;78.85;36.42;;;;;;;10.75;60.82;100957.02;2299436;85;25651;-84
2021/12/12 11:37:53;;;;;;;75.80;38.33;;;;;;;10.52;60.38;100956.27;2302458;85;25723;-83
2021/12/12 11:41:28;;;;;;;83.25;41.10;;;;;;;10.27;59.96;100954.58;2276996;85;25632;-83
2021/12/12 11:45:27;;;;;;;77.70;38.58;;;;;;;10.06;59.69;100957.73;2295119;85;26453;-86
2021/12/12 11:48:58;;;;;;;80.07;37.58;;;;;;;9.86;59.48;100963.53;2295376;85;25781;-82
2021/12/12 11:53:06;;;;;;;89.28;39.05;;;;;;;9.66;59.17;100966.30;2295465;85;25616;-83
2021/12/12 11:56:35;;;;;;;81.15;39.18;;;;;;;9.52;58.97;100967.90;2246971;87;26615;-83
2021/12/12 12:00:18;;;;;;;;;;;;;;;9.33;58.71;100963.73;2261773;87;25643;-80
2021/12/12 12:03:59;;;;;;;83.55;42.08;;;;;;;9.22;58.51;100962.04;2237542;87;25966;-86
2021/12/12 12:07:56;;;;;;;79.20;38.78;;;;;;;9.07;58.31;100972.72;2178156;89;25851;-84
2021/12/12 12:11:46;;;;;;;77.22;39.18;;;;;;;8.93;58.15;100973.48;2178413;90;25825;-85
2021/12/12 12:15:50;;;;;;;93.40;41.30;;;;;;;8.82;57.96;100967.39;2177958;90;25807;-85
2021/12/12 12:19:37;;;;;;;85.90;42.20;;;;;;;8.71;57.83;100962.66;2178655;90;25795;-79
2021/12/12 12:23:33;;;;;;;91.00;44.67;;;;;;;8.61;57.76;100959.20;2177872;90;25705;-86
2021/12/12 12:27:06;;;;;;;103.47;49.05;;;;;;;8.53;57.94;100958.41;2155809;90;26603;-80
2021/12/12 12:31:09;;;;;;;111.85;54.15;;;;;;;8.51;58.05;100955.34;2174328;90;25874;-77
2021/12/12 12:35:25;;;;;;;113.15;50.43;;;;;;;8.48;57.98;100955.21;2216512;89;25761;-80
2021/12/12 12:39:33;;;;;;;114.97;52.67;;;;;;;8.57;59.16;100948.19;2212326;89;26456;-82
2021/12/12 12:43:39;;;;;;;105.22;48.08;;;;;;;8.50;58.62;100950.06;2218187;86;26307;-83
2021/12/12 12:47:48;;;;;;;99.07;47.40;;;;;;;8.38;58.14;100949.16;2245622;88;25689;-90
2021/12/12 12:51:44;;;;;;;104.07;45.67;;;;;;;8.31;58.09;100951.00;2276374;86;33130;-85
2021/12/12 12:55:33;;;;;;;111.12;41.92;;;;;;;8.26;58.05;100946.89;2249003;87;25919;-84
2021/12/12 12:59:28;;;;;;;85.15;35.83;;;;;;;8.18;57.62;100944.81;2204715;89;25773;-83
2021/12/12 13:03:14;;;;;;;90.83;37.35;;;;;;;8.25;60.86;100937.75;2256283;83;25655;-78
2021/12/12 13:07:03;;;;;;;80.20;34.83;;;;;;;8.39;58.90;100945.73;2334142;83;25820;-84
2021/12/12 13:10:29;;;;;;;86.37;38.02;;;;;;;8.33;58.82;100942.84;2326706;85;25807;-86
2021/12/12 13:14:15;;;;;;;84.47;38.98;;;;;;;8.26;58.27;100938.22;2326090;83;25277;-82
2021/12/12 13:18:16;;;;;;;86.50;39.88;;;;;;;8.15;57.93;100940.37;2361993;82;25737;-77
2021/12/12 13:22:02;;;;;;;83.27;36.77;;;;;;;8.01;57.42;100931.11;2365485;83;25751;-82
2021/12/12 13:25:35;;;;;;;69.77;34.05;;;;;;;7.94;57.69;100937.75;2365733;83;25976;-82
2021/12/12 13:29:14;;;;;;;77.35;33.15;;;;;;;7.91;57.74;100931.13;2362766;83;25855;-84
2021/12/12 13:33:10;;;;;;;72.53;34.00;;;;;;;7.90;57.79;100937.15;2379962;82;25856;-83
2021/12/12 13:37:16;;;;;;;67.75;33.70;;;;;;;7.88;57.85;100932.28;2348565;82;25879;-86
2021/12/12 13:41:06;;;;;;;73.15;33.18;;;;;;;7.89;57.81;100937.06;2332662;83;25838;-83
2021/12/12 13:45:08;;;;;;;78.40;36.03;;;;;;;7.88;57.79;100944.39;2326147;83;25640;-83
2021/12/12 13:49:05;;;;;;;68.02;33.63;;;;;;;7.86;57.78;100948.61;2360626;83;25698;-82
2021/12/12 13:52:43;;;;;;;67.42;31.12;;;;;;;7.83;57.89;100945.87;2317303;85;25697;-83
2021/12/12 13:56:16;;;;;;;66.80;31.27;;;;;;;7.86;57.94;100947.31;2271045;84;25513;-81
2021/12/12 14:00:19;;;;;;;68.20;32.28;;;;;;;7.87;57.97;100954.30;2257850;86;25891;-81
2021/12/12 14:03:55;;;;;;;65.57;30.37;;;;;;;7.89;58.01;100956.53;2248517;86;26498;-80
2021/12/12 14:07:19;;;;;;;62.33;31.48;;;;;;;7.91;57.96;100960.09;2248759;86;25759;-84
2021/12/12 14:10:49;;;;;;;72.53;35.30;;;;;;;7.90;57.94;100955.33;2252987;86;25807;-85
2021/12/12 14:14:39;;;;;;;77.85;38.08;;;;;;;7.89;57.87;100942.26;2282151;85;25784;-81
2021/12/12 14:18:06;;;;;;;86.37;39.58;;;;;;;7.81;57.48;100954.91;2263386;87;25687;-80
2021/12/12 14:21:28;;;;;;;76.22;38.80;;;;;;;7.68;57.18;100952.59;2263346;86;25772;-79
2021/12/12 14:24:56;;;;;;;81.32;39.00;;;;;;;7.59;57.00;100956.95;2268297;86;25735;-82
2021/12/12 14:28:24;;;;;;;91.97;41.28;;;;;;;7.48;56.80;100955.17;2213648;88;25341;-80
2021/12/12 14:32:01;;;;;;;79.62;39.63;;;;;;;7.40;56.63;100951.36;2215070;87;26487;-78
2021/12/12 14:35:26;;;;;;;80.97;40.10;;;;;;;7.32;56.54;100954.00;2217450;88;26038;-78
2021/12/12 14:38:49;;;;;;;90.50;42.90;;;;;;;7.23;56.60;100958.38;2219060;88;25788;-80
2021/12/12 14:42:26;;;;;;;93.33;43.13;;;;;;;7.14;56.38;100960.53;2228684;87;25954;-85
2021/12/12 14:46:16;;;;;;;82.27;40.05;;;;;;;7.07;56.40;100967.55;2203331;88;25744;-84
2021/12/12 14:49:42;;;;;;;85.40;38.73;;;;;;;6.99;56.34;100962.01;2191766;90;25753;-80
2021/12/12 14:53:07;;;;;;;89.28;43.05;;;;;;;6.91;56.29;100975.41;2223590;85;25748;-81
2021/12/12 14:56:33;;;;;;;88.90;43.25;;;;;;;6.83;56.22;100978.52;2305337;84;25751;-78
2021/12/12 15:00:15;;;;;;;88.70;42.43;;;;;;;6.77;56.14;100976.92;2304364;84;26184;-85
2021/12/12 15:03:41;;;;;;;93.92;44.25;;;;;;;6.72;56.17;100974.95;2305181;85;25632;-84
2021/12/12 15:07:08;;;;;;;96.15;43.17;;;;;;;6.64;56.08;100986.21;2305224;85;25578;-82
2021/12/12 15:10:34;;;;;;;93.45;44.10;;;;;;;6.61;56.09;100978.28;2304853;85;25702;-80
2021/12/12 15:13:56;;;;;;;94.30;44.77;;;;;;;6.56;56.07;100971.59;2304969;85;25917;-81
2021/12/12 15:17:22;;;;;;;97.30;46.88;;;;;;;6.53;56.05;100979.63;2305297;85;25707;-77
2021/12/12 15:21:00;;;;;;;93.42;43.45;;;;;;;6.49;55.99;100983.77;2305089;84;25689;-81
2021/12/12 15:24:25;;;;;;;101.10;43.75;;;;;;;6.46;56.00;100984.02;2304777;85;25712;-78
2021/12/12 15:27:49;;;;;;;94.85;43.17;;;;;;;6.41;55.96;100973.41;2306068;84;25707;-82
2021/12/12 15:31:18;;;;;;;98.95;46.00;;;;;;;6.36;56.01;100961.95;2308147;84;25681;-77
2021/12/12 15:34:47;;;;;;;99.20;45.92;;;;;;;6.34;55.95;100968.74;2307449;84;25605;-80
2021/12/12 15:38:16;;;;;;;97.47;46.02;;;;;;;6.30;56.03;100992.72;2309371;84;25741;-80
2021/12/12 15:41:41;;;;;;;97.80;46.20;;;;;;;6.26;55.96;101003.73;2309077;85;25716;-76
2021/12/12 15:45:10;;;;;;;99.97;45.80;;;;;;;6.23;55.98;101009.64;2309414;85;25632;-77
2021/12/12 15:48:42;;;;;;;104.60;47.90;;;;;;;6.21;55.98;101002.59;2309559;84;25653;-78
2021/12/12 15:52:18;;;;;;;103.50;48.42;;;;;;;6.22;55.99;100997.92;2308731;85;25672;-83
2021/12/12 15:55:54;;;;;;;98.42;47.58;;;;;;;6.20;55.97;100991.77;2309078;84;25704;-79
2021/12/12 15:59:27;;;;;;;105.17;48.83;;;;;;;6.18;55.98;100994.70;2309009;84;25712;-85
2021/12/12 16:02:49;;;;;;;105.00;47.90;;;;;;;6.16;56.01;100995.91;2268304;87;25733;-79
2021/12/12 16:06:10;;;;;;;106.58;48.20;;;;;;;6.15;56.05;101001.48;2269043;87;26335;-77
2021/12/12 16:09:37;;;;;;;104.32;48.52;;;;;;;6.12;56.05;101001.33;2269174;85;25720;-83
2021/12/12 16:13:00;;;;;;;104.95;50.35;;;;;;;6.10;56.03;100996.87;2269056;85;25752;-76
2021/12/12 16:16:27;;;;;;;105.55;47.30;;;;;;;6.10;56.04;100993.00;2269159;87;25865;-80
2021/12/12 16:19:52;;;;;;;110.68;50.20;;;;;;;6.09;56.04;100995.11;2269009;87;25846;-79
2021/12/12 16:23:19;;;;;;;116.50;52.15;;;;;;;6.09;56.07;101000.28;2269059;87;25980;-83
2021/12/12 16:26:46;;;;;;;115.70;51.25;;;;;;;6.06;56.07;100997.13;2269103;87;25792;-77
2021/12/12 16:30:15;;;;;;;118.00;52.05;;;;;;;6.05;56.15;100990.19;2268752;85;25325;-80
2021/12/12 16:33:48;;;;;;;106.70;52.62;;;;;;;6.04;56.29;100996.18;2268936;87;25836;-79
2021/12/12 16:37:16;;;;;;;120.02;52.00;;;;;;;6.04;56.31;100992.67;2196852;90;25901;-78